createdAt,value
2022-12-18T00:01:49.510Z,101242.06
2022-12-18T00:04:52.762Z,101256.16
2022-12-18T00:07:55.655Z,101257.91
2022-12-18T00:11:07.086Z,101262.53
2022-12-18T00:14:12.588Z,101270.81
2022-12-18T00:17:15.802Z,101274.63
2022-12-18T00:20:24.721Z,101284.00
2022-12-18T00:23:28.757Z,101281.34
2022-12-18T00:26:34.627Z,101285.81
2022-12-18T00:29:41.015Z,101291.28
2022-12-18T00:32:44.174Z,101296.38
2022-12-18T00:35:47.327Z,101299.81
2022-12-18T00:38:50.477Z,101301.87
2022-12-18T00:42:12.645Z,101307.19
2022-12-18T00:45:16.067Z,101307.66
2022-12-18T00:48:19.246Z,101304.69
2022-12-18T00:51:22.155Z,101313.44
2022-12-18T00:54:25.475Z,101310.31
2022-12-18T00:57:28.439Z,101315.13
2022-12-18T01:00:31.748Z,101324.78
2022-12-18T01:03:34.608Z,101322.38
2022-12-18T01:06:38.091Z,101328.72
2022-12-18T01:09:41.252Z,101324.63
2022-12-18T01:12:44.969Z,101329.56
2022-12-18T01:15:52.599Z,101338.19
2022-12-18T01:18:55.877Z,101349.38
2022-12-18T01:22:00.480Z,101349.13
2022-12-18T01:25:05.384Z,101349.13
2022-12-18T01:28:08.354Z,101348.66
2022-12-18T01:31:22.863Z,101340.16
2022-12-18T01:34:25.836Z,101351.44
2022-12-18T01:37:29.014Z,101356.66
2022-12-18T01:40:33.290Z,101352.03
2022-12-18T01:43:44.963Z,101356.38
2022-12-18T01:46:47.804Z,101357.56
2022-12-18T01:49:51.666Z,101358.03
2022-12-18T01:53:00.527Z,101363.53
2022-12-18T01:56:04.385Z,101366.97
2022-12-18T01:59:09.477Z,101364.47
2022-12-18T02:02:13.535Z,101371.53
2022-12-18T02:05:20.444Z,101363.38
2022-12-18T02:08:37.446Z,101373.16
2022-12-18T02:11:57.715Z,101371.09
2022-12-18T02:15:11.405Z,101375.38
2022-12-18T02:18:42.949Z,101389.06
2022-12-18T02:21:53.168Z,101389.66
2022-12-18T02:25:25.243Z,101392.41
2022-12-18T02:28:33.316Z,101406.59
2022-12-18T02:31:41.380Z,101410.84
2022-12-18T02:34:44.986Z,101411.75
2022-12-18T02:37:49.358Z,101402.31
2022-12-18T02:40:54.892Z,101414.31
2022-12-18T02:44:02.701Z,101416.06
2022-12-18T02:47:07.291Z,101420.19
2022-12-18T02:50:32.467Z,101417.00
2022-12-18T02:53:47.616Z,101417.81
2022-12-18T02:56:53.451Z,101421.94
2022-12-18T03:00:04.940Z,101420.66
2022-12-18T03:03:32.456Z,101419.28
2022-12-18T03:06:42.297Z,101429.41
2022-12-18T03:09:49.581Z,101435.09
2022-12-18T03:12:56.013Z,101440.94
2022-12-18T03:16:00.401Z,101441.62
2022-12-18T03:19:07.170Z,101439.00
2022-12-18T03:22:11.289Z,101447.50
2022-12-18T03:25:16.279Z,101453.25
2022-12-18T03:28:22.560Z,101462.84
2022-12-18T03:31:27.544Z,101465.81
2022-12-18T03:34:34.325Z,101464.44
2022-12-18T03:37:39.588Z,101466.16
2022-12-18T03:41:03.092Z,101478.13
2022-12-18T03:44:29.437Z,101480.19
2022-12-18T03:47:40.664Z,101478.59
2022-12-18T03:50:59.115Z,101483.66
2022-12-18T03:54:06.521Z,101478.72
2022-12-18T03:57:19.895Z,101482.84
2022-12-18T04:00:24.059Z,101486.22
2022-12-18T04:03:30.264Z,101488.38
2022-12-18T04:06:33.563Z,101501.19
2022-12-18T04:09:37.987Z,101494.94
2022-12-18T04:12:40.951Z,101502.56
2022-12-18T04:15:46.324Z,101501.97
2022-12-18T04:18:49.810Z,101502.44
2022-12-18T04:21:55.213Z,101506.34
2022-12-18T04:24:59.091Z,101496.88
2022-12-18T04:28:04.159Z,101508.53
2022-12-18T04:31:07.383Z,101523.59
2022-12-18T04:34:10.719Z,101522.22
2022-12-18T04:37:13.861Z,101521.97
2022-12-18T04:40:17.280Z,101523.69
2022-12-18T04:43:20.897Z,101526.38
2022-12-18T04:46:24.217Z,101542.16
2022-12-18T04:49:27.320Z,101546.66
2022-12-18T04:52:30.579Z,101543.44
2022-12-18T04:55:33.519Z,101548.16
2022-12-18T04:58:38.094Z,101551.03
2022-12-18T05:01:41.284Z,101550.47
2022-12-18T05:04:45.452Z,101550.12
2022-12-18T05:07:48.744Z,101558.28
2022-12-18T05:11:06.824Z,101553.91
2022-12-18T05:14:09.658Z,101551.50
2022-12-18T05:17:12.844Z,101561.38
2022-12-18T05:20:16.693Z,101563.47
2022-12-18T05:23:20.646Z,101561.84
2022-12-18T05:26:24.882Z,101561.84
2022-12-18T05:29:28.054Z,101562.75
2022-12-18T05:32:31.688Z,101565.06
2022-12-18T05:35:34.778Z,101574.47
2022-12-18T05:38:39.108Z,101584.72
2022-12-18T05:41:42.476Z,101588.28
2022-12-18T05:44:46.210Z,101586.09
2022-12-18T05:47:49.427Z,101589.41
2022-12-18T05:50:52.622Z,101595.38
2022-12-18T05:53:56.207Z,101591.00
2022-12-18T05:56:59.375Z,101596.50
2022-12-18T06:00:03.162Z,101607.53
2022-12-18T06:03:15.152Z,101602.84
2022-12-18T06:06:21.213Z,101599.00
2022-12-18T06:09:24.183Z,101609.53
2022-12-18T06:12:27.438Z,101612.16
2022-12-18T06:15:30.304Z,101608.47
2022-12-18T06:18:33.958Z,101608.66
2022-12-18T06:21:36.900Z,101613.28
2022-12-18T06:24:40.964Z,101610.41
2022-12-18T06:27:44.738Z,101615.47
2022-12-18T06:30:49.451Z,101624.75
2022-12-18T06:33:54.036Z,101633.97
2022-12-18T06:36:58.566Z,101634.47
2022-12-18T06:40:02.192Z,101641.28
2022-12-18T06:43:05.451Z,101636.91
2022-12-18T06:46:08.475Z,101645.31
2022-12-18T06:49:11.869Z,101645.88
2022-12-18T06:52:15.583Z,101651.97
2022-12-18T06:55:18.883Z,101650.91
2022-12-18T06:58:22.328Z,101655.75
2022-12-18T07:01:25.374Z,101674.31
2022-12-18T07:04:31.677Z,101682.25
2022-12-18T07:07:35.662Z,101681.34
2022-12-18T07:10:47.468Z,101677.00
2022-12-18T07:13:53.978Z,101685.88
2022-12-18T07:16:56.886Z,101693.50
2022-12-18T07:20:00.124Z,101706.91
2022-12-18T07:23:04.634Z,101698.28
2022-12-18T07:26:10.059Z,101713.34
2022-12-18T07:29:13.117Z,101712.69
2022-12-18T07:32:16.285Z,101721.31
2022-12-18T07:35:24.765Z,101731.50
2022-12-18T07:38:28.556Z,101733.81
2022-12-18T07:41:32.948Z,101737.53
2022-12-18T07:44:40.081Z,101745.63
2022-12-18T07:47:43.020Z,101756.81
2022-12-18T07:50:46.211Z,101758.16
2022-12-18T07:53:52.226Z,101770.75
2022-12-18T07:56:55.952Z,101768.84
2022-12-18T07:59:59.578Z,101779.31
2022-12-18T08:03:03.112Z,101772.66
2022-12-18T08:06:08.772Z,101780.03
2022-12-18T08:09:11.956Z,101787.97
2022-12-18T08:12:15.169Z,101780.50
2022-12-18T08:15:18.471Z,101783.16
2022-12-18T08:18:21.603Z,101780.28
2022-12-18T08:21:27.294Z,101782.34
2022-12-18T08:24:30.616Z,101791.47
2022-12-18T08:27:33.431Z,101792.28
2022-12-18T08:30:37.745Z,101791.94
2022-12-18T08:33:42.032Z,101803.56
2022-12-18T08:36:45.496Z,101799.56
2022-12-18T08:39:48.467Z,101812.78
2022-12-18T08:43:10.475Z,101814.56
2022-12-18T08:46:13.633Z,101816.28
2022-12-18T08:49:16.944Z,101818.69
2022-12-18T08:52:19.867Z,101822.28
2022-12-18T08:55:23.219Z,101826.91
2022-12-18T08:58:26.350Z,101831.41
2022-12-18T09:01:29.684Z,101828.41
2022-12-18T09:04:32.984Z,101824.81
2022-12-18T09:07:36.157Z,101830.03
2022-12-18T09:10:46.401Z,101831.53
2022-12-18T09:13:50.135Z,101827.94
2022-12-18T09:16:53.125Z,101842.72
2022-12-18T09:19:56.466Z,101843.72
2022-12-18T09:23:00.610Z,101847.97
2022-12-18T09:26:03.957Z,101851.56
2022-12-18T09:29:08.793Z,101839.34
2022-12-18T09:32:18.940Z,101841.62
2022-12-18T09:35:25.297Z,101838.62
2022-12-18T09:38:28.839Z,101840.94
2022-12-18T09:41:56.945Z,101835.84
2022-12-18T09:45:00.738Z,101836.25
2022-12-18T09:48:04.965Z,101839.06
2022-12-18T09:51:21.845Z,101837.13
2022-12-18T09:54:33.244Z,101839.69
2022-12-18T09:57:40.661Z,101836.38
2022-12-18T10:00:43.811Z,101829.72
2022-12-18T10:03:47.314Z,101822.59
2022-12-18T10:07:08.936Z,101830.63
2022-12-18T10:10:28.617Z,101823.16
2022-12-18T10:13:37.766Z,101831.28
2022-12-18T10:16:53.081Z,101826.34
2022-12-18T10:19:59.807Z,101828.78
2022-12-18T10:23:16.047Z,101829.28
2022-12-18T10:26:19.358Z,101829.34
2022-12-18T10:29:23.968Z,101836.84
2022-12-18T10:32:29.827Z,101835.06
2022-12-18T10:35:33.068Z,101841.94
2022-12-18T10:38:36.059Z,101842.44
2022-12-18T10:41:39.233Z,101849.19
2022-12-18T10:44:42.157Z,101840.97
2022-12-18T10:47:47.745Z,101839.38
2022-12-18T10:54:23.344Z,101831.53
2022-12-18T10:57:32.742Z,101827.66
2022-12-18T11:00:37.165Z,101823.19
2022-12-18T11:03:45.024Z,101825.31
2022-12-18T11:07:01.181Z,101819.19
2022-12-18T11:10:04.073Z,101816.25
2022-12-18T11:13:28.096Z,101818.28
2022-12-18T11:16:34.928Z,101818.56
2022-12-18T11:19:40.920Z,101823.34
2022-12-18T11:22:44.047Z,101819.13
2022-12-18T11:25:59.145Z,101811.34
2022-12-18T11:29:18.438Z,101825.78
2022-12-18T11:32:35.643Z,101816.41
2022-12-18T11:35:43.495Z,101812.19
2022-12-18T11:38:48.149Z,101804.25
2022-12-18T11:42:10.304Z,101793.66
2022-12-18T11:45:14.662Z,101800.59
2022-12-18T11:48:22.674Z,101803.16
2022-12-18T11:51:38.569Z,101794.31
2022-12-18T11:54:41.549Z,101798.84
2022-12-18T11:57:50.718Z,101790.81
2022-12-18T12:01:13.274Z,101792.87
2022-12-18T12:04:42.884Z,101789.69
2022-12-18T12:08:07.244Z,101786.19
2022-12-18T12:11:13.555Z,101784.88
2022-12-18T12:14:40.572Z,101792.00
2022-12-18T12:17:51.499Z,101785.34
2022-12-18T12:21:17.367Z,101778.12
2022-12-18T12:24:39.417Z,101775.50
2022-12-18T12:27:52.385Z,101780.41
2022-12-18T12:31:01.620Z,101778.91
2022-12-18T12:34:16.515Z,101781.59
2022-12-18T12:37:19.911Z,101784.72
2022-12-18T12:41:02.265Z,101796.25
2022-12-18T12:43:50.790Z,101804.28
2022-12-18T12:46:58.915Z,101805.03
2022-12-18T12:50:05.889Z,101802.78
2022-12-18T12:53:19.510Z,101814.91
2022-12-18T12:56:23.463Z,101819.19
2022-12-18T12:59:54.314Z,101818.50
2022-12-18T13:03:13.709Z,101826.94
2022-12-18T13:06:44.511Z,101807.50
2022-12-18T13:10:12.093Z,101824.06
2022-12-18T13:13:23.329Z,101826.91
2022-12-18T13:16:28.688Z,101827.69
2022-12-18T13:19:31.627Z,101834.91
2022-12-18T13:22:36.426Z,101824.88
2022-12-18T13:25:39.426Z,101833.03
2022-12-18T13:28:49.040Z,101834.75
2022-12-18T13:31:51.859Z,101828.94
2022-12-18T13:35:23.230Z,101825.81
2022-12-18T13:38:27.446Z,101828.56
2022-12-18T13:41:30.612Z,101836.06
2022-12-18T13:44:40.824Z,101832.97
2022-12-18T13:47:45.022Z,101840.66
2022-12-18T13:51:04.921Z,101837.78
2022-12-18T13:54:15.321Z,101835.00
2022-12-18T13:57:29.163Z,101839.66
2022-12-18T14:00:33.107Z,101832.16
2022-12-18T14:03:36.793Z,101840.75
2022-12-18T14:06:40.003Z,101840.09
2022-12-18T14:10:18.837Z,101840.47
2022-12-18T14:13:28.017Z,101849.25
2022-12-18T14:16:31.473Z,101844.69
2022-12-18T14:19:35.397Z,101843.87
2022-12-18T14:22:38.561Z,101850.56
2022-12-18T14:25:47.304Z,101842.81
2022-12-18T14:28:50.527Z,101852.28
2022-12-18T14:32:21.059Z,101856.00
2022-12-18T14:35:25.212Z,101864.31
2022-12-18T14:38:50.856Z,101877.44
2022-12-18T14:41:54.393Z,101867.87
2022-12-18T14:45:41.499Z,101867.91
2022-12-18T14:48:48.567Z,101867.59
2022-12-18T14:51:54.317Z,101877.66
2022-12-18T14:54:57.595Z,101878.16
2022-12-18T14:58:00.863Z,101878.53
2022-12-18T15:01:04.545Z,101885.84
2022-12-18T15:04:37.928Z,101890.53
2022-12-18T15:07:44.208Z,101894.31
2022-12-18T15:10:52.439Z,101889.72
2022-12-18T15:13:56.717Z,101897.34
2022-12-18T15:17:02.404Z,101900.69
2022-12-18T15:20:11.646Z,101907.97
2022-12-18T15:23:46.858Z,101905.97
2022-12-18T15:26:51.583Z,101918.75
2022-12-18T15:30:03.720Z,101928.13
2022-12-18T15:33:28.891Z,101930.72
2022-12-18T15:36:32.792Z,101932.50
2022-12-18T15:39:37.029Z,101939.03
2022-12-18T15:42:58.495Z,101941.28
2022-12-18T15:46:18.128Z,101943.22
2022-12-18T15:49:22.340Z,101938.19
2022-12-18T15:52:27.938Z,101938.81
2022-12-18T15:55:50.191Z,101946.91
2022-12-18T15:58:55.323Z,101949.97
2022-12-18T16:01:58.963Z,101950.09
2022-12-18T16:05:04.613Z,101955.09
2022-12-18T16:08:08.094Z,101957.31
2022-12-18T16:11:42.174Z,101962.78
2022-12-18T16:14:47.892Z,101966.59
2022-12-18T16:17:54.208Z,101957.59
2022-12-18T16:21:00.442Z,101963.72
2022-12-18T16:24:05.144Z,101976.56
2022-12-18T16:27:09.464Z,101976.94
2022-12-18T16:30:19.984Z,101988.25
2022-12-18T16:33:24.017Z,101981.53
2022-12-18T16:36:28.760Z,101981.06
2022-12-18T16:39:34.773Z,101980.06
2022-12-18T16:42:41.291Z,101982.94
2022-12-18T16:45:46.712Z,101976.34
2022-12-18T16:48:51.478Z,101979.69
2022-12-18T16:51:57.077Z,101973.13
2022-12-18T16:55:02.313Z,101973.78
2022-12-18T16:58:06.306Z,101967.59
2022-12-18T17:01:12.333Z,101969.88
2022-12-18T17:04:17.902Z,101969.41
2022-12-18T17:07:24.049Z,101971.59
2022-12-18T17:10:29.053Z,101970.91
2022-12-18T17:13:35.677Z,101969.75
2022-12-18T17:16:40.153Z,101965.72
2022-12-18T17:19:45.097Z,101954.38
2022-12-18T17:22:49.361Z,101964.31
2022-12-18T17:25:57.905Z,101961.53
2022-12-18T17:29:02.392Z,101967.97
2022-12-18T17:32:06.956Z,101970.88
2022-12-18T17:35:10.797Z,101976.03
2022-12-18T17:38:15.533Z,101977.66
2022-12-18T17:41:21.037Z,101980.09
2022-12-18T17:44:26.029Z,101983.22
2022-12-18T17:47:31.693Z,101966.34
2022-12-18T17:50:37.555Z,101974.31
2022-12-18T17:53:44.409Z,101973.47
2022-12-18T17:56:49.402Z,101981.88
2022-12-18T17:59:54.140Z,101982.53
2022-12-18T18:03:09.314Z,101993.59
2022-12-18T18:06:14.941Z,101986.44
2022-12-18T18:09:20.189Z,101984.69
2022-12-18T18:12:43.158Z,101983.50
2022-12-18T18:15:59.172Z,101975.00
2022-12-18T18:19:13.588Z,101975.00
2022-12-18T18:22:19.683Z,101989.37
2022-12-18T18:25:25.521Z,101987.38
2022-12-18T18:28:29.974Z,101995.31
2022-12-18T18:31:40.696Z,102010.22
2022-12-18T18:34:45.019Z,102002.03
2022-12-18T18:37:50.181Z,101997.53
2022-12-18T18:41:01.148Z,102001.22
2022-12-18T18:44:07.193Z,102000.19
2022-12-18T18:47:11.893Z,102014.56
2022-12-18T18:50:17.754Z,102010.69
2022-12-18T18:53:21.437Z,101995.22
2022-12-18T18:57:04.116Z,102008.69
2022-12-18T18:59:56.151Z,102003.72
2022-12-18T19:03:01.052Z,102015.38
2022-12-18T19:06:07.362Z,102019.72
2022-12-18T19:09:13.065Z,102031.06
2022-12-18T19:12:37.857Z,102023.91
2022-12-18T19:15:46.096Z,102028.56
2022-12-18T19:18:50.273Z,102029.97
2022-12-18T19:21:55.923Z,102031.28
2022-12-18T19:25:01.906Z,102027.47
2022-12-18T19:28:06.877Z,102023.31
2022-12-18T19:31:16.099Z,102033.72
2022-12-18T19:34:22.972Z,102033.66
2022-12-18T19:37:27.818Z,102035.34
2022-12-18T19:40:32.958Z,102045.34
2022-12-18T19:43:39.458Z,102046.19
2022-12-18T19:46:46.597Z,102040.03
2022-12-18T19:49:54.440Z,102040.88
2022-12-18T19:53:00.975Z,102046.03
2022-12-18T19:56:07.882Z,102043.47
2022-12-18T19:59:12.597Z,102051.63
2022-12-18T20:02:16.927Z,102048.81
2022-12-18T20:05:25.752Z,102042.88
2022-12-18T20:08:30.250Z,102058.25
2022-12-18T20:11:42.068Z,102065.53
2022-12-18T20:14:47.382Z,102070.47
2022-12-18T20:17:53.666Z,102072.97
2022-12-18T20:21:00.044Z,102074.25
2022-12-18T20:24:10.184Z,102076.75
2022-12-18T20:27:19.479Z,102078.06
2022-12-18T20:30:24.052Z,102075.62
2022-12-18T20:33:28.140Z,102079.31
2022-12-18T20:36:34.251Z,102073.56
2022-12-18T20:39:39.964Z,102072.62
2022-12-18T20:42:45.421Z,102076.72
2022-12-18T20:45:48.772Z,102079.81
2022-12-18T20:48:53.228Z,102078.19
2022-12-18T20:52:00.081Z,102079.81
2022-12-18T20:55:05.521Z,102084.09
2022-12-18T20:58:08.973Z,102084.53
2022-12-18T21:01:14.889Z,102087.72
2022-12-18T21:04:19.562Z,102095.88
2022-12-18T21:07:23.399Z,102091.37
2022-12-18T21:10:27.748Z,102092.44
2022-12-18T21:13:31.318Z,102090.28
2022-12-18T21:16:36.516Z,102085.00
2022-12-18T21:19:41.210Z,102086.03
2022-12-18T21:22:44.456Z,102080.13
2022-12-18T21:25:49.961Z,102076.91
2022-12-18T21:29:01.538Z,102071.59
2022-12-18T21:32:05.490Z,102062.16
2022-12-18T21:35:09.091Z,102065.78
2022-12-18T21:38:12.239Z,102060.56
2022-12-18T21:41:41.664Z,102058.34
2022-12-18T21:44:48.026Z,102060.59
2022-12-18T21:47:51.008Z,102064.31
2022-12-18T21:50:54.167Z,102068.19
2022-12-18T21:53:57.161Z,102059.06
2022-12-18T21:57:02.512Z,102054.34
2022-12-18T22:00:06.839Z,102058.84
2022-12-18T22:03:18.665Z,102054.56
2022-12-18T22:06:22.548Z,102060.44
2022-12-18T22:09:25.961Z,102066.78
2022-12-18T22:12:43.574Z,102062.81
2022-12-18T22:15:47.513Z,102069.19
2022-12-18T22:18:50.881Z,102060.81
2022-12-18T22:21:54.419Z,102068.84
2022-12-18T22:24:57.590Z,102071.28
2022-12-18T22:28:19.299Z,102073.53
2022-12-18T22:31:22.506Z,102072.09
2022-12-18T22:34:26.609Z,102082.69
2022-12-18T22:37:29.762Z,102078.19
2022-12-18T22:40:32.647Z,102076.34
2022-12-18T22:43:35.973Z,102087.31
2022-12-18T22:46:50.045Z,102093.00
2022-12-18T22:50:12.499Z,102077.47
2022-12-18T22:53:15.413Z,102073.41
2022-12-18T22:56:20.361Z,102081.88
2022-12-18T22:59:24.503Z,102078.63
2022-12-18T23:02:27.798Z,102081.91
2022-12-18T23:05:31.322Z,102081.56
2022-12-18T23:08:34.891Z,102076.44
2022-12-18T23:11:38.790Z,102084.66
2022-12-18T23:14:43.687Z,102083.84
2022-12-18T23:17:46.776Z,102080.19
2022-12-18T23:20:51.198Z,102081.00
2022-12-18T23:23:54.453Z,102079.16
2022-12-18T23:26:57.800Z,102081.53
2022-12-18T23:30:00.723Z,102074.37
2022-12-18T23:33:04.211Z,102079.44
2022-12-18T23:36:08.576Z,102079.84
2022-12-18T23:39:12.556Z,102079.00
2022-12-18T23:42:30.256Z,102088.25
2022-12-18T23:45:37.728Z,102082.09
2022-12-18T23:48:41.568Z,102087.47
2022-12-18T23:51:44.699Z,102087.28
2022-12-18T23:54:47.612Z,102077.47
2022-12-18T23:57:51.119Z,102090.94
